Time,TemperatureF,DewpointF,PressureIn,WindDirection,WindDirectionDegrees,WindSpeedMPH,WindSpeedGustMPH,Humidity,HourlyPrecipIn,Conditions,Clouds,dailyrainin,SoftwareType,DateUTC
2013-08-22 00:00:00,77.0,73.2,30.04,North,351,0.9,0.9,88,0.00,,SKC,0.00,VWS V14.01,2013-08-22 05:00:00,
2013-08-22 00:01:00,75.6,72.8,30.04,North,8,1.3,1.3,91,0.00,,SKC,0.00,VWS V14.01,2013-08-22 05:01:00,
2013-08-22 00:06:00,75.4,72.7,30.04,North,4,0.7,1.3,91,0.00,,SKC,0.00,VWS V14.01,2013-08-22 05:06:00,
2013-08-22 00:10:00,75.9,73.0,30.04,NNE,21,0.7,2.0,91,0.00,,SKC,0.00,VWS V14.01,2013-08-22 05:10:00,
2013-08-22 00:11:00,75.2,72.6,30.03,SSE,151,0.4,0.9,92,0.00,,SKC,0.00,VWS V14.01,2013-08-22 05:11:00,
2013-08-22 00:17:00,75.0,72.5,30.03,SSE,168,0.7,0.9,92,0.00,,SKC,0.00,VWS V14.01,2013-08-22 05:17:00,
2013-08-22 00:22:00,75.0,72.6,30.03,South,181,0.9,0.9,92,0.00,,SKC,0.00,VWS V14.01,2013-08-22 05:22:00,
2013-08-22 00:27:00,75.0,72.6,30.03,SW,229,1.1,1.1,92,0.00,,SKC,0.00,VWS V14.01,2013-08-22 05:27:00,
2013-08-22 00:30:00,75.6,72.8,30.04,SW,215,1.1,2.2,91,0.00,,SKC,0.00,VWS V14.01,2013-08-22 05:30:00,
2013-08-22 00:32:00,74.8,72.4,30.03,SSW,210,0.4,1.1,92,0.00,,SKC,0.00,VWS V14.01,2013-08-22 05:32:00,
2013-08-22 00:37:00,74.7,72.2,30.03,SW,231,1.3,1.3,92,0.00,,SKC,0.00,VWS V14.01,2013-08-22 05:37:00,
2013-08-22 00:40:00,75.6,72.8,30.04,SW,218,1.6,1.8,91,0.00,,SKC,0.00,VWS V14.01,2013-08-22 05:40:00,
2013-08-22 00:42:00,74.7,72.2,30.03,SW,223,0.9,1.3,92,0.00,,SKC,0.00,VWS V14.01,2013-08-22 05:42:00,
2013-08-22 00:47:00,74.7,72.3,30.02,SSW,205,0.9,1.3,92,0.00,,SKC,0.00,VWS V14.01,2013-08-22 05:47:00,
2013-08-22 00:50:00,75.6,72.7,30.03,SW,227,0.7,1.6,91,0.00,,SKC,0.00,VWS V14.01,2013-08-22 05:50:00,
2013-08-22 00:53:00,74.7,72.2,30.03,WNW,291,0.4,1.3,92,0.00,,SKC,0.00,VWS V14.01,2013-08-22 05:53:00,
2013-08-22 00:58:00,74.3,71.8,30.02,WSW,246,0.7,1.3,92,0.00,,SKC,0.00,VWS V14.01,2013-08-22 05:58:00,
2013-08-22 01:00:00,75.2,72.6,30.03,North,359,0.9,1.3,92,0.00,,SKC,0.00,VWS V14.01,2013-08-22 06:00:00,
2013-08-22 01:03:00,74.3,71.9,30.02,SW,223,1.8,2.0,92,0.00,,SKC,0.00,VWS V14.01,2013-08-22 06:03:00,
2013-08-22 01:08:00,74.3,71.9,30.02,ENE,72,0.2,2.0,92,0.00,,SKC,0.00,VWS V14.01,2013-08-22 06:08:00,
2013-08-22 01:13:00,74.1,71.7,30.02,NE,47,1.1,1.1,92,0.00,,SKC,0.00,VWS V14.01,2013-08-22 06:13:00,
2013-08-22 01:18:00,74.1,71.8,30.02,ENE,57,1.6,1.6,92,0.00,,SKC,0.00,VWS V14.01,2013-08-22 06:18:00,
2013-08-22 01:24:00,74.3,72.2,30.02,NE,53,2.0,2.2,93,0.00,,SKC,0.00,VWS V14.01,2013-08-22 06:24:00,
2013-08-22 01:29:00,74.3,72.2,30.03,NE,45,1.8,2.2,93,0.00,,SKC,0.00,VWS V14.01,2013-08-22 06:29:00,
2013-08-22 01:34:00,74.1,72.0,30.03,South,177,0.2,2.2,93,0.00,,SKC,0.00,VWS V14.01,2013-08-22 06:34:00,
2013-08-22 01:39:00,74.1,72.0,30.02,South,171,0.4,2.2,93,0.00,,SKC,0.00,VWS V14.01,2013-08-22 06:39:00,
2013-08-22 01:44:00,73.9,71.8,30.02,ESE,110,0.4,2.2,93,0.00,,SKC,0.00,VWS V14.01,2013-08-22 06:44:00,
2013-08-22 01:49:00,73.9,71.9,30.02,East,83,1.3,2.2,93,0.00,,SKC,0.00,VWS V14.01,2013-08-22 06:49:00,
2013-08-22 01:55:00,73.9,71.8,30.02,ESE,111,0.9,2.2,93,0.00,,SKC,0.00,VWS V14.01,2013-08-22 06:55:00,
2013-08-22 02:00:00,73.8,71.6,30.02,SE,124,0.4,2.2,93,0.00,,SKC,0.00,VWS V14.01,2013-08-22 07:00:00,
2013-08-22 02:05:00,73.6,71.4,30.02,NNW,340,0.2,2.2,93,0.00,,SKC,0.00,VWS V14.01,2013-08-22 07:05:00,
2013-08-22 02:10:00,73.6,71.5,30.02,NE,41,1.3,2.2,93,0.00,,SKC,0.00,VWS V14.01,2013-08-22 07:10:00,
2013-08-22 02:15:00,73.2,71.0,30.02,SW,227,0.4,1.1,93,0.00,,SKC,0.00,VWS V14.01,2013-08-22 07:15:00,
2013-08-22 02:20:00,73.2,71.1,30.02,SSW,207,0.2,1.1,93,0.00,,SKC,0.00,VWS V14.01,2013-08-22 07:20:00,
2013-08-22 02:26:00,73.2,71.2,30.02,NNW,345,0.2,0.7,93,0.00,,SKC,0.00,VWS V14.01,2013-08-22 07:26:00,
2013-08-22 02:30:00,73.2,71.1,30.02,NNW,341,1.1,1.1,93,0.00,,SKC,0.00,VWS V14.01,2013-08-22 07:30:00,
2013-08-22 02:31:00,73.4,71.3,30.02,WNW,284,0.2,0.7,93,0.00,,SKC,0.00,VWS V14.01,2013-08-22 07:31:00,
2013-08-22 02:36:00,73.2,71.1,30.03,North,10,1.8,1.8,93,0.00,,SKC,0.00,VWS V14.01,2013-08-22 07:36:00,
2013-08-22 02:40:00,73.0,71.0,30.02,NNE,16,0.9,1.8,93,0.00,,SKC,0.00,VWS V14.01,2013-08-22 07:40:00,
2013-08-22 02:41:00,73.0,71.0,30.02,NNE,16,0.9,1.8,93,0.00,,SKC,0.00,VWS V14.01,2013-08-22 07:41:00,
2013-08-22 02:46:00,73.0,71.0,30.02,South,183,0.7,0.9,93,0.00,,SKC,0.00,VWS V14.01,2013-08-22 07:46:00,
2013-08-22 02:51:00,72.9,70.8,30.02,NE,54,0.2,0.9,93,0.00,,SKC,0.00,VWS V14.01,2013-08-22 07:51:00,
2013-08-22 02:56:00,72.9,70.8,30.02,NE,42,0.4,0.9,93,0.00,,SKC,0.00,VWS V14.01,2013-08-22 07:56:00,
2013-08-22 03:00:00,72.9,70.8,30.02,North,354,0.7,1.1,93,0.00,,SKC,0.00,VWS V14.01,2013-08-22 08:00:00,
2013-08-22 03:02:00,72.9,70.8,30.02,North,354,0.7,1.1,93,0.00,,SKC,0.00,VWS V14.01,2013-08-22 08:02:00,
2013-08-22 03:07:00,72.9,70.9,30.02,SE,125,0.7,0.7,94,0.00,,SKC,0.00,VWS V14.01,2013-08-22 08:07:00,
2013-08-22 03:10:00,72.7,70.7,30.02,SSE,168,0.7,0.7,93,0.00,,SKC,0.00,VWS V14.01,2013-08-22 08:10:00,
2013-08-22 03:12:00,72.7,70.7,30.02,SSE,168,0.7,0.7,93,0.00,,SKC,0.00,VWS V14.01,2013-08-22 08:12:00,
2013-08-22 03:17:00,72.9,70.9,30.02,SSW,211,1.3,1.3,94,0.00,,SKC,0.00,VWS V14.01,2013-08-22 08:17:00,
2013-08-22 03:20:00,72.9,70.9,30.02,SW,235,1.1,1.3,94,0.00,,SKC,0.00,VWS V14.01,2013-08-22 08:20:00,
2013-08-22 03:22:00,72.9,70.9,30.02,SW,235,1.1,1.3,94,0.00,,SKC,0.00,VWS V14.01,2013-08-22 08:22:00,
2013-08-22 03:27:00,72.9,70.8,30.02,NNW,344,0.7,1.1,93,0.00,,SKC,0.00,VWS V14.01,2013-08-22 08:27:00,
2013-08-22 03:33:00,72.7,70.6,30.03,ENE,67,0.4,1.3,93,0.00,,SKC,0.00,VWS V14.01,2013-08-22 08:33:00,
2013-08-22 03:38:00,72.5,70.5,30.02,SW,215,0.2,1.3,93,0.00,,SKC,0.00,VWS V14.01,2013-08-22 08:38:00,
2013-08-22 03:40:00,72.5,70.5,30.02,ENE,63,1.1,1.3,94,0.00,,SKC,0.00,VWS V14.01,2013-08-22 08:40:00,
2013-08-22 03:43:00,72.7,70.8,30.02,NE,50,0.7,1.1,94,0.00,,SKC,0.00,VWS V14.01,2013-08-22 08:43:00,
2013-08-22 03:48:00,72.5,70.6,30.03,North,349,0.7,1.1,94,0.00,,SKC,0.00,VWS V14.01,2013-08-22 08:48:00,
2013-08-22 03:50:00,72.5,70.6,30.03,ENE,64,0.9,1.1,94,0.00,,SKC,0.00,VWS V14.01,2013-08-22 08:50:00,
2013-08-22 03:53:00,72.5,70.5,30.03,NE,44,1.3,1.3,93,0.00,,SKC,0.00,VWS V14.01,2013-08-22 08:53:00,
2013-08-22 03:58:00,72.1,70.1,30.03,ENE,60,0.9,1.3,93,0.00,,SKC,0.00,VWS V14.01,2013-08-22 08:58:00,
2013-08-22 04:00:00,72.1,70.2,30.03,NNE,22,0.4,1.3,94,0.00,,SKC,0.00,VWS V14.01,2013-08-22 09:00:00,
2013-08-22 04:03:00,72.3,70.4,30.03,NE,45,0.7,0.7,94,0.00,,SKC,0.00,VWS V14.01,2013-08-22 09:03:00,
2013-08-22 04:09:00,72.1,70.2,30.03,NE,43,1.3,1.6,94,0.00,,SKC,0.00,VWS V14.01,2013-08-22 09:09:00,
2013-08-22 04:14:00,72.1,70.2,30.03,SSW,206,0.2,1.6,94,0.00,,SKC,0.00,VWS V14.01,2013-08-22 09:14:00,
2013-08-22 04:19:00,72.3,70.4,30.03,South,169,0.7,1.6,94,0.00,,SKC,0.00,VWS V14.01,2013-08-22 09:19:00,
2013-08-22 04:20:00,72.3,70.4,30.03,SE,133,0.4,1.6,94,0.00,,SKC,0.00,VWS V14.01,2013-08-22 09:20:00,
2013-08-22 04:24:00,72.3,70.4,30.03,SE,145,0.0,0.4,94,0.00,,SKC,0.00,VWS V14.01,2013-08-22 09:24:00,
2013-08-22 04:29:00,72.3,70.4,30.03,NNW,345,0.7,0.7,94,0.00,,SKC,0.00,VWS V14.01,2013-08-22 09:29:00,
2013-08-22 04:30:00,72.1,70.2,30.03,North,1,0.7,0.7,94,0.00,,SKC,0.00,VWS V14.01,2013-08-22 09:30:00,
2013-08-22 04:34:00,72.1,70.2,30.03,West,275,0.2,0.7,94,0.00,,SKC,0.00,VWS V14.01,2013-08-22 09:34:00,
2013-08-22 04:40:00,72.1,70.2,30.03,SW,227,1.1,1.1,94,0.00,,SKC,0.00,VWS V14.01,2013-08-22 09:40:00,
2013-08-22 04:45:00,72.1,70.3,30.03,South,175,0.9,1.3,94,0.00,,SKC,0.00,VWS V14.01,2013-08-22 09:45:00,
2013-08-22 04:50:00,72.5,70.7,30.03,SSE,156,0.9,1.3,94,0.00,,SKC,0.00,VWS V14.01,2013-08-22 09:50:00,
2013-08-22 04:55:00,72.5,70.7,30.03,NW,318,1.6,1.6,94,0.00,,SKC,0.00,VWS V14.01,2013-08-22 09:55:00,
2013-08-22 05:00:00,72.3,70.4,30.03,WSW,239,0.4,1.6,94,0.00,,SKC,0.00,VWS V14.01,2013-08-22 10:00:00,
2013-08-22 05:06:00,72.1,70.2,30.03,SW,234,1.1,1.6,94,0.00,,SKC,0.00,VWS V14.01,2013-08-22 10:06:00,
2013-08-22 05:10:00,72.1,70.2,30.03,SW,224,0.7,1.8,94,0.00,,SKC,0.00,VWS V14.01,2013-08-22 10:10:00,
2013-08-22 05:11:00,72.1,70.2,30.03,SW,235,1.3,1.8,94,0.00,,SKC,0.00,VWS V14.01,2013-08-22 10:11:00,
2013-08-22 05:16:00,72.0,70.0,30.03,SW,218,0.7,0.7,94,0.00,,SKC,0.00,VWS V14.01,2013-08-22 10:16:00,
2013-08-22 05:20:00,72.0,70.1,30.03,SSW,211,0.7,0.7,94,0.00,,SKC,0.00,VWS V14.01,2013-08-22 10:20:00,
2013-08-22 05:21:00,72.0,70.1,30.03,SSW,211,0.7,0.7,94,0.00,,SKC,0.00,VWS V14.01,2013-08-22 10:21:00,
2013-08-22 05:26:00,72.0,70.1,30.03,North,350,0.4,0.9,94,0.00,,SKC,0.00,VWS V14.01,2013-08-22 10:26:00,
2013-08-22 05:30:00,72.1,70.2,30.03,NE,48,0.7,1.1,94,0.00,,SKC,0.00,VWS V14.01,2013-08-22 10:30:00,
2013-08-22 05:31:00,72.1,70.2,30.03,NE,48,0.7,1.1,94,0.00,,SKC,0.00,VWS V14.01,2013-08-22 10:31:00,
2013-08-22 05:36:00,72.0,70.1,30.04,SSE,152,0.4,0.7,94,0.00,,SKC,0.00,VWS V14.01,2013-08-22 10:36:00,
2013-08-22 05:42:00,72.1,70.3,30.04,NNE,25,0.2,0.9,94,0.00,,SKC,0.00,VWS V14.01,2013-08-22 10:42:00,
2013-08-22 05:47:00,72.1,70.3,30.04,NNE,31,1.6,1.6,94,0.00,,SKC,0.00,VWS V14.01,2013-08-22 10:47:00,
2013-08-22 05:50:00,72.0,70.0,30.03,NE,35,1.6,1.6,93,0.00,,SKC,0.00,VWS V14.01,2013-08-22 10:50:00,
2013-08-22 06:00:00,71.6,69.7,30.03,South,189,0.4,1.6,94,0.00,,SKC,0.00,VWS V14.01,2013-08-22 11:00:00,
2013-08-22 06:10:00,71.8,69.9,30.04,NNE,17,0.4,0.4,94,0.00,,SKC,0.00,VWS V14.01,2013-08-22 11:10:00,
2013-08-22 06:30:00,72.0,70.1,30.04,West,273,0.4,0.7,94,0.00,,SKC,0.00,VWS V14.01,2013-08-22 11:30:00,
2013-08-22 06:40:00,71.8,69.9,30.05,NE,38,1.3,1.3,94,0.00,,SKC,0.00,VWS V14.01,2013-08-22 11:40:00,
2013-08-22 06:50:00,72.0,70.1,30.05,East,87,0.2,1.3,94,0.00,,SKC,0.00,VWS V14.01,2013-08-22 11:50:00,
2013-08-22 07:10:00,72.1,70.3,30.05,NE,42,2.0,2.9,94,0.00,,SKC,0.00,VWS V14.01,2013-08-22 12:10:00,
2013-08-22 07:20:00,72.3,70.4,30.06,NE,44,0.7,2.0,94,0.00,,SKC,0.00,VWS V14.01,2013-08-22 12:20:00,
2013-08-22 07:27:00,72.5,70.6,30.06,NNE,28,1.8,1.8,94,0.00,,SKC,0.00,VWS V14.01,2013-08-22 12:27:00,
2013-08-22 07:30:00,72.5,70.6,30.06,NE,43,1.8,1.8,94,0.00,,SKC,0.00,VWS V14.01,2013-08-22 12:30:00,
2013-08-22 07:33:00,72.5,70.6,30.06,NE,43,1.8,1.8,94,0.00,,SKC,0.00,VWS V14.01,2013-08-22 12:33:00,
2013-08-22 07:38:00,72.7,70.7,30.06,WNW,286,0.2,1.8,94,0.00,,SKC,0.00,VWS V14.01,2013-08-22 12:38:00,
2013-08-22 07:40:00,72.9,70.9,30.06,NNE,17,1.1,1.8,94,0.00,,SKC,0.00,VWS V14.01,2013-08-22 12:40:00,
2013-08-22 07:43:00,72.9,70.9,30.06,NNE,14,1.1,1.1,94,0.00,,SKC,0.00,VWS V14.01,2013-08-22 12:43:00,
2013-08-22 07:48:00,73.0,71.1,30.06,NNE,17,1.6,1.6,94,0.00,,SKC,0.00,VWS V14.01,2013-08-22 12:48:00,
2013-08-22 07:53:00,73.2,71.2,30.06,NE,50,1.3,1.8,93,0.00,,SKC,0.00,VWS V14.01,2013-08-22 12:53:00,
2013-08-22 07:58:00,73.4,71.3,30.06,NNE,32,0.4,1.8,93,0.00,,SKC,0.00,VWS V14.01,2013-08-22 12:58:00,
2013-08-22 08:00:00,73.8,71.7,30.07,NE,56,0.9,1.8,93,0.00,,SKC,0.00,VWS V14.01,2013-08-22 13:00:00,
2013-08-22 08:04:00,73.9,71.9,30.07,NE,45,1.8,1.8,93,0.00,,SKC,0.00,VWS V14.01,2013-08-22 13:04:00,
2013-08-22 08:06:00,73.9,71.8,30.07,ENE,60,1.6,1.8,93,0.00,,SKC,0.00,VWS V14.01,2013-08-22 13:06:00,
2013-08-22 08:10:00,74.3,72.0,30.07,ENE,61,1.3,1.8,92,0.00,,SKC,0.00,VWS V14.01,2013-08-22 13:10:00,
2013-08-22 08:11:00,74.3,72.0,30.07,ENE,61,1.3,1.8,92,0.00,,SKC,0.00,VWS V14.01,2013-08-22 13:11:00,
2013-08-22 08:16:00,74.5,72.2,30.07,NE,36,1.6,1.6,93,0.00,,SKC,0.00,VWS V14.01,2013-08-22 13:16:00,
2013-08-22 08:20:00,74.8,72.4,30.07,NE,44,1.8,2.2,92,0.00,,SKC,0.00,VWS V14.01,2013-08-22 13:20:00,
2013-08-22 08:22:00,74.8,72.4,30.07,NE,44,1.8,2.2,92,0.00,,SKC,0.00,VWS V14.01,2013-08-22 13:22:00,
2013-08-22 08:27:00,75.0,72.5,30.07,ENE,62,2.0,2.0,92,0.00,,SKC,0.00,VWS V14.01,2013-08-22 13:27:00,
2013-08-22 08:32:00,75.6,73.0,30.07,NE,39,1.8,2.0,92,0.00,,SKC,0.00,VWS V14.01,2013-08-22 13:32:00,
2013-08-22 08:37:00,76.3,73.4,30.07,East,85,0.7,2.0,91,0.00,,SKC,0.00,VWS V14.01,2013-08-22 13:37:00,
2013-08-22 08:40:00,76.8,73.5,30.07,ENE,72,1.1,2.0,90,0.00,,SKC,0.00,VWS V14.01,2013-08-22 13:40:00,
2013-08-22 08:42:00,76.8,73.5,30.07,ENE,72,1.1,2.0,90,0.00,,SKC,0.00,VWS V14.01,2013-08-22 13:42:00,
2013-08-22 08:47:00,77.2,73.5,30.08,ENE,60,3.4,3.4,88,0.00,,SKC,0.00,VWS V14.01,2013-08-22 13:47:00,
2013-08-22 08:50:00,77.4,73.4,30.08,NE,50,2.7,3.4,88,0.00,,SKC,0.00,VWS V14.01,2013-08-22 13:50:00,
2013-08-22 08:53:00,77.4,73.4,30.08,NE,50,2.7,3.4,88,0.00,,SKC,0.00,VWS V14.01,2013-08-22 13:53:00,
2013-08-22 08:58:00,78.1,73.9,30.08,NE,46,3.1,3.1,87,0.00,,SKC,0.00,VWS V14.01,2013-08-22 13:58:00,
2013-08-22 09:00:00,78.1,74.1,30.08,NNE,21,5.4,5.4,88,0.00,,SKC,0.00,VWS V14.01,2013-08-22 14:00:00,
2013-08-22 09:03:00,78.4,74.2,30.08,NNE,32,4.3,5.4,87,0.00,,SKC,0.00,VWS V14.01,2013-08-22 14:03:00,
2013-08-22 09:08:00,78.6,74.2,30.07,NE,40,5.4,5.4,86,0.00,,SKC,0.00,VWS V14.01,2013-08-22 14:08:00,
2013-08-22 09:13:00,79.2,74.5,30.07,ENE,59,2.5,5.8,86,0.00,,SKC,0.00,VWS V14.01,2013-08-22 14:13:00,
2013-08-22 09:18:00,79.5,74.6,30.07,ENE,68,1.8,5.8,85,0.00,,SKC,0.00,VWS V14.01,2013-08-22 14:18:00,
2013-08-22 09:20:00,80.1,74.7,30.07,North,5,1.6,5.8,84,0.00,,SKC,0.00,VWS V14.01,2013-08-22 14:20:00,
2013-08-22 09:23:00,80.2,74.7,30.07,NE,38,4.7,4.7,83,0.00,,SKC,0.00,VWS V14.01,2013-08-22 14:23:00,
2013-08-22 09:29:00,80.2,75.1,30.07,ENE,75,2.7,4.7,84,0.00,,SKC,0.00,VWS V14.01,2013-08-22 14:29:00,
2013-08-22 09:30:00,81.1,74.8,30.07,ENE,66,2.2,4.7,81,0.00,,SKC,0.00,VWS V14.01,2013-08-22 14:30:00,
2013-08-22 09:34:00,81.5,75.1,30.07,North,355,0.7,2.2,81,0.00,,SKC,0.00,VWS V14.01,2013-08-22 14:34:00,
2013-08-22 09:39:00,82.0,75.1,30.07,NE,42,4.5,4.5,80,0.00,,SKC,0.00,VWS V14.01,2013-08-22 14:39:00,
2013-08-22 09:40:00,81.3,74.6,30.07,NE,36,6.5,6.5,80,0.00,,SKC,0.00,VWS V14.01,2013-08-22 14:40:00,
2013-08-22 09:44:00,81.1,74.3,30.07,NNE,18,4.3,6.5,80,0.00,,SKC,0.00,VWS V14.01,2013-08-22 14:44:00,
2013-08-22 09:49:00,81.1,74.6,30.07,NE,38,5.4,6.5,80,0.00,,SKC,0.00,VWS V14.01,2013-08-22 14:49:00,
2013-08-22 09:54:00,81.5,75.3,30.07,NNE,15,3.8,6.5,82,0.00,,SKC,0.00,VWS V14.01,2013-08-22 14:54:00,
2013-08-22 10:00:00,83.5,74.8,30.07,ENE,58,2.9,6.5,75,0.00,,SKC,0.00,VWS V14.01,2013-08-22 15:00:00,
2013-08-22 10:05:00,82.8,74.8,30.07,NE,41,4.3,4.3,77,0.00,,SKC,0.00,VWS V14.01,2013-08-22 15:05:00,
2013-08-22 10:10:00,83.5,74.7,30.08,NNW,345,0.7,4.3,75,0.00,,SKC,0.00,VWS V14.01,2013-08-22 15:10:00,
2013-08-22 10:15:00,85.1,74.4,30.08,NE,34,6.0,6.0,70,0.00,,SKC,0.00,VWS V14.01,2013-08-22 15:15:00,
2013-08-22 10:20:00,84.0,74.0,30.08,NE,47,1.1,6.0,72,0.00,,SKC,0.00,VWS V14.01,2013-08-22 15:20:00,
2013-08-22 10:25:00,83.7,73.5,30.07,North,357,1.3,3.6,72,0.00,,SKC,0.00,VWS V14.01,2013-08-22 15:25:00,
2013-08-22 10:30:00,83.5,73.6,30.07,NE,38,0.7,5.6,72,0.00,,SKC,0.00,VWS V14.01,2013-08-22 15:30:00,
2013-08-22 10:36:00,83.8,73.3,30.07,NNE,15,0.7,5.6,71,0.00,,SKC,0.00,VWS V14.01,2013-08-22 15:36:00,
2013-08-22 10:41:00,83.7,72.5,30.07,NNE,18,3.1,5.6,69,0.00,,SKC,0.00,VWS V14.01,2013-08-22 15:41:00,
2013-08-22 10:46:00,84.7,72.2,30.07,South,171,4.7,5.6,66,0.00,,SKC,0.00,VWS V14.01,2013-08-22 15:46:00,
2013-08-22 10:50:00,85.8,73.2,30.07,SSW,195,1.3,5.6,66,0.00,,SKC,0.00,VWS V14.01,2013-08-22 15:50:00,
2013-08-22 10:51:00,85.8,73.2,30.07,SSW,195,1.3,5.6,66,0.00,,SKC,0.00,VWS V14.01,2013-08-22 15:51:00,
2013-08-22 10:56:00,86.0,72.4,30.07,East,93,1.1,4.3,64,0.00,,SKC,0.00,VWS V14.01,2013-08-22 15:56:00,
2013-08-22 11:00:00,84.7,72.3,30.07,East,101,2.7,4.7,66,0.00,,SKC,0.00,VWS V14.01,2013-08-22 16:00:00,
2013-08-22 11:01:00,84.7,72.3,30.07,East,101,2.7,4.7,66,0.00,,SKC,0.00,VWS V14.01,2013-08-22 16:01:00,
2013-08-22 11:07:00,84.6,72.1,30.07,NNE,24,3.6,3.6,66,0.00,,SKC,0.00,VWS V14.01,2013-08-22 16:07:00,
2013-08-22 11:10:00,84.6,72.6,30.07,North,351,1.6,4.9,68,0.00,,SKC,0.00,VWS V14.01,2013-08-22 16:10:00,
2013-08-22 11:12:00,84.6,72.6,30.07,North,351,1.6,4.9,68,0.00,,SKC,0.00,VWS V14.01,2013-08-22 16:12:00,
2013-08-22 11:17:00,85.5,72.6,30.07,SW,225,0.7,2.5,66,0.00,,SKC,0.00,VWS V14.01,2013-08-22 16:17:00,
2013-08-22 11:22:00,87.4,72.9,30.07,NNW,337,0.7,2.5,62,0.00,,SKC,0.00,VWS V14.01,2013-08-22 16:22:00,
2013-08-22 11:27:00,88.9,72.3,30.06,South,189,4.0,4.0,58,0.00,,SKC,0.00,VWS V14.01,2013-08-22 16:27:00,
2013-08-22 11:30:00,88.2,72.1,30.06,SW,219,3.6,4.0,59,0.00,,SKC,0.00,VWS V14.01,2013-08-22 16:30:00,
2013-08-22 11:32:00,88.2,72.1,30.06,SW,219,3.6,4.0,59,0.00,,SKC,0.00,VWS V14.01,2013-08-22 16:32:00,
2013-08-22 11:37:00,86.7,71.4,30.06,SSE,160,2.0,6.5,60,0.00,,SKC,0.00,VWS V14.01,2013-08-22 16:37:00,
2013-08-22 11:40:00,87.6,72.8,30.06,NE,37,0.9,6.5,62,0.00,,SKC,0.00,VWS V14.01,2013-08-22 16:40:00,
2013-08-22 11:43:00,87.6,72.8,30.06,NE,37,0.9,6.5,62,0.00,,SKC,0.00,VWS V14.01,2013-08-22 16:43:00,
2013-08-22 11:48:00,88.2,72.4,30.06,NE,36,3.4,3.4,60,0.00,,SKC,0.00,VWS V14.01,2013-08-22 16:48:00,
2013-08-22 11:50:00,86.5,72.1,30.05,NE,45,4.3,4.9,62,0.00,,SKC,0.00,VWS V14.01,2013-08-22 16:50:00,
2013-08-22 11:53:00,86.2,71.3,30.05,NE,43,3.8,4.3,61,0.00,,SKC,0.00,VWS V14.01,2013-08-22 16:53:00,
2013-08-22 11:58:00,86.5,70.4,30.05,NNE,31,6.5,6.5,59,0.00,,SKC,0.00,VWS V14.01,2013-08-22 16:58:00,
2013-08-22 12:00:00,86.5,72.2,30.05,NE,43,0.9,6.5,62,0.00,,SKC,0.00,VWS V14.01,2013-08-22 17:00:00,
2013-08-22 12:03:00,87.4,72.5,30.05,SSE,155,0.4,0.9,61,0.00,,SKC,0.00,VWS V14.01,2013-08-22 17:03:00,
2013-08-22 12:08:00,88.7,72.8,30.05,South,169,5.4,6.3,60,0.00,,SKC,0.00,VWS V14.01,2013-08-22 17:08:00,
2013-08-22 12:10:00,88.9,72.6,30.05,ENE,77,1.6,6.3,59,0.00,,SKC,0.00,VWS V14.01,2013-08-22 17:10:00,
2013-08-22 12:14:00,89.1,71.5,30.05,NE,42,1.1,1.6,56,0.00,,SKC,0.00,VWS V14.01,2013-08-22 17:14:00,
2013-08-22 12:19:00,88.9,70.8,30.04,North,355,3.8,3.8,55,0.00,,SKC,0.00,VWS V14.01,2013-08-22 17:19:00,
2013-08-22 12:20:00,87.8,72.7,30.04,NNE,16,1.6,3.8,61,0.00,,SKC,0.00,VWS V14.01,2013-08-22 17:20:00,
2013-08-22 12:24:00,88.5,72.0,30.04,East,90,0.7,1.6,58,0.00,,SKC,0.00,VWS V14.01,2013-08-22 17:24:00,
2013-08-22 12:29:00,91.2,71.7,30.04,NW,319,0.7,2.9,53,0.00,,SKC,0.00,VWS V14.01,2013-08-22 17:29:00,
2013-08-22 12:30:00,91.2,71.7,30.03,SSE,159,2.5,2.9,53,0.00,,SKC,0.00,VWS V14.01,2013-08-22 17:30:00,
2013-08-22 12:34:00,91.0,71.8,30.04,ESE,112,1.3,2.5,53,0.00,,SKC,0.00,VWS V14.01,2013-08-22 17:34:00,
2013-08-22 12:39:00,89.2,70.1,30.03,NNE,33,8.7,8.7,53,0.00,,SKC,0.00,VWS V14.01,2013-08-22 17:39:00,
2013-08-22 12:40:00,88.7,70.1,30.03,NE,47,9.4,9.4,54,0.00,,SKC,0.00,VWS V14.01,2013-08-22 17:40:00,
2013-08-22 12:45:00,88.7,71.0,30.03,NE,49,3.6,9.4,56,0.00,,SKC,0.00,VWS V14.01,2013-08-22 17:45:00,
2013-08-22 12:50:00,90.0,70.1,30.03,ENE,75,2.9,9.4,52,0.00,,SKC,0.00,VWS V14.01,2013-08-22 17:50:00,
2013-08-22 12:55:00,89.1,69.2,30.03,NW,321,1.6,9.4,52,0.00,,SKC,0.00,VWS V14.01,2013-08-22 17:55:00,
2013-08-22 13:00:00,89.6,71.7,30.02,NNE,17,4.9,9.4,56,0.00,,SKC,0.00,VWS V14.01,2013-08-22 18:00:00,
2013-08-22 13:05:00,90.1,71.3,30.02,SSW,204,1.6,4.3,54,0.00,,SKC,0.00,VWS V14.01,2013-08-22 18:05:00,
2013-08-22 13:10:00,92.1,70.9,30.02,SSE,158,3.1,4.3,50,0.00,,SKC,0.00,VWS V14.01,2013-08-22 18:10:00,
2013-08-22 13:15:00,90.7,69.6,30.02,South,177,2.9,6.9,50,0.00,,SKC,0.00,VWS V14.01,2013-08-22 18:15:00,
2013-08-22 13:20:00,91.6,70.1,30.01,ENE,60,1.8,6.9,50,0.00,,SKC,0.00,VWS V14.01,2013-08-22 18:20:00,
2013-08-22 13:21:00,91.2,70.6,30.01,NE,42,3.1,6.9,51,0.00,,SKC,0.00,VWS V14.01,2013-08-22 18:21:00,
2013-08-22 13:26:00,90.7,69.6,30.01,ENE,71,4.7,5.6,50,0.00,,SKC,0.00,VWS V14.01,2013-08-22 18:26:00,
2013-08-22 13:30:00,90.3,69.8,30.01,ESE,102,1.1,5.6,51,0.00,,SKC,0.00,VWS V14.01,2013-08-22 18:30:00,
2013-08-22 13:31:00,90.3,69.8,30.01,ESE,102,1.1,5.6,51,0.00,,SKC,0.00,VWS V14.01,2013-08-22 18:31:00,
2013-08-22 13:36:00,91.2,71.1,30.01,NNE,21,1.3,1.3,52,0.00,,SKC,0.00,VWS V14.01,2013-08-22 18:36:00,
2013-08-22 13:41:00,91.6,68.9,30.00,NE,35,6.0,6.0,48,0.00,,SKC,0.00,VWS V14.01,2013-08-22 18:41:00,
2013-08-22 13:46:00,91.0,68.8,30.00,NE,41,10.1,10.1,48,0.00,,SKC,0.00,VWS V14.01,2013-08-22 18:46:00,
2013-08-22 13:50:00,91.6,69.3,30.00,SW,231,1.6,10.1,48,0.00,,SKC,0.00,VWS V14.01,2013-08-22 18:50:00,
2013-08-22 13:52:00,91.6,69.3,30.00,SW,231,1.6,10.1,48,0.00,,SKC,0.00,VWS V14.01,2013-08-22 18:52:00,
2013-08-22 13:57:00,93.2,69.4,30.00,ENE,69,0.9,1.6,46,0.00,,SKC,0.00,VWS V14.01,2013-08-22 18:57:00,
2013-08-22 14:00:00,92.7,67.8,29.99,SW,217,3.1,3.1,44,0.00,,SKC,0.00,VWS V14.01,2013-08-22 19:00:00,
2013-08-22 14:02:00,92.7,67.8,29.99,SW,217,3.1,3.1,44,0.00,,SKC,0.00,VWS V14.01,2013-08-22 19:02:00,
2013-08-22 14:07:00,92.5,68.8,29.99,ENE,68,2.0,3.1,46,0.00,,SKC,0.00,VWS V14.01,2013-08-22 19:07:00,
2013-08-22 14:10:00,92.3,68.3,29.99,NNE,13,2.9,3.1,46,0.00,,SKC,0.00,VWS V14.01,2013-08-22 19:10:00,
2013-08-22 14:12:00,92.7,67.6,29.99,NNE,25,9.0,9.0,44,0.00,,SKC,0.00,VWS V14.01,2013-08-22 19:12:00,
2013-08-22 14:17:00,92.1,68.9,29.99,NNW,333,3.4,9.0,47,0.00,,SKC,0.00,VWS V14.01,2013-08-22 19:17:00,
2013-08-22 14:20:00,93.2,68.5,29.99,South,182,3.4,9.0,45,0.00,,SKC,0.00,VWS V14.01,2013-08-22 19:20:00,
2013-08-22 14:22:00,93.4,68.3,29.99,SSE,168,3.8,3.8,44,0.00,,SKC,0.00,VWS V14.01,2013-08-22 19:22:00,
2013-08-22 14:28:00,94.5,67.6,29.98,NNE,30,2.2,3.8,42,0.00,,SKC,0.00,VWS V14.01,2013-08-22 19:28:00,
2013-08-22 14:33:00,92.3,67.3,29.98,NE,36,6.0,6.0,44,0.00,,SKC,0.00,VWS V14.01,2013-08-22 19:33:00,
2013-08-22 14:38:00,91.9,68.5,29.98,South,190,2.7,6.0,46,0.00,,SKC,0.00,VWS V14.01,2013-08-22 19:38:00,
2013-08-22 14:40:00,92.5,69.8,29.98,South,177,2.0,6.0,48,0.00,,SKC,0.00,VWS V14.01,2013-08-22 19:40:00,
2013-08-22 14:43:00,94.5,69.3,29.98,ENE,62,1.6,4.9,44,0.00,,SKC,0.00,VWS V14.01,2013-08-22 19:43:00,
2013-08-22 14:48:00,95.2,68.1,29.98,North,0,1.8,4.9,41,0.00,,SKC,0.00,VWS V14.01,2013-08-22 19:48:00,
2013-08-22 14:50:00,94.8,68.2,29.98,SW,223,2.9,4.9,42,0.00,,SKC,0.00,VWS V14.01,2013-08-22 19:50:00,
2013-08-22 14:53:00,95.0,68.2,29.97,WSW,243,2.0,2.9,42,0.00,,SKC,0.00,VWS V14.01,2013-08-22 19:53:00,
2013-08-22 14:59:00,95.4,69.7,29.97,East,84,1.8,3.4,44,0.00,,SKC,0.00,VWS V14.01,2013-08-22 19:59:00,
2013-08-22 15:00:00,95.4,69.1,29.97,ENE,73,1.6,3.4,43,0.00,,SKC,0.00,VWS V14.01,2013-08-22 20:00:00,
2013-08-22 15:04:00,94.8,68.6,29.97,NNW,339,1.8,1.8,43,0.00,,SKC,0.00,VWS V14.01,2013-08-22 20:04:00,
2013-08-22 15:09:00,95.0,69.2,29.96,SSE,163,1.8,3.1,43,0.00,,SKC,0.00,VWS V14.01,2013-08-22 20:09:00,
2013-08-22 15:10:00,95.5,67.9,29.96,NE,44,2.5,3.1,41,0.00,,SKC,0.00,VWS V14.01,2013-08-22 20:10:00,
2013-08-22 15:14:00,95.7,69.4,29.96,NE,56,2.5,2.5,43,0.00,,SKC,0.00,VWS V14.01,2013-08-22 20:14:00,
2013-08-22 15:19:00,95.0,68.9,29.96,North,11,0.9,2.5,43,0.00,,SKC,0.00,VWS V14.01,2013-08-22 20:19:00,
2013-08-22 15:20:00,95.0,69.6,29.96,West,261,1.3,2.5,44,0.00,,SKC,0.00,VWS V14.01,2013-08-22 20:20:00,
2013-08-22 15:24:00,95.0,68.6,29.96,ENE,68,1.6,1.6,42,0.00,,SKC,0.00,VWS V14.01,2013-08-22 20:24:00,
2013-08-22 15:29:00,93.9,69.8,29.96,NE,42,0.9,1.8,46,0.00,,SKC,0.00,VWS V14.01,2013-08-22 20:29:00,
2013-08-22 15:30:00,94.5,69.3,29.96,ENE,67,1.3,1.8,44,0.00,,SKC,0.00,VWS V14.01,2013-08-22 20:30:00,
2013-08-22 15:35:00,95.0,69.3,29.96,NE,45,1.8,1.8,44,0.00,,SKC,0.00,VWS V14.01,2013-08-22 20:35:00,
2013-08-22 15:40:00,93.4,67.1,29.95,SW,218,5.1,5.1,42,0.00,,SKC,0.00,VWS V14.01,2013-08-22 20:40:00,
2013-08-22 15:45:00,94.8,68.6,29.95,North,10,0.9,4.3,43,0.00,,SKC,0.00,VWS V14.01,2013-08-22 20:45:00,
2013-08-22 15:50:00,95.0,68.8,29.95,NE,47,1.6,4.3,43,0.00,,SKC,0.00,VWS V14.01,2013-08-22 20:50:00,
2013-08-22 15:55:00,95.5,69.3,29.94,NE,52,0.4,4.3,43,0.00,,SKC,0.00,VWS V14.01,2013-08-22 20:55:00,
2013-08-22 16:00:00,96.4,68.1,29.94,NE,55,3.4,4.3,40,0.00,,SKC,0.00,VWS V14.01,2013-08-22 21:00:00,
2013-08-22 16:06:00,97.2,67.3,29.94,South,175,5.4,5.4,38,0.00,,SKC,0.00,VWS V14.01,2013-08-22 21:06:00,
2013-08-22 16:09:00,92.8,67.8,29.93,South,182,2.2,5.4,44,0.00,,SKC,0.00,VWS V14.01,2013-08-22 21:09:00,
2013-08-22 16:10:00,92.8,67.8,29.93,South,182,2.2,5.4,44,0.00,,SKC,0.00,VWS V14.01,2013-08-22 21:10:00,
2013-08-22 16:11:00,96.8,67.8,29.94,South,174,4.5,5.4,39,0.00,,SKC,0.00,VWS V14.01,2013-08-22 21:11:00,
2013-08-22 16:16:00,94.6,68.0,29.94,South,188,1.3,3.4,42,0.00,,SKC,0.00,VWS V14.01,2013-08-22 21:16:00,
2013-08-22 16:20:00,93.6,68.0,29.94,SE,146,2.7,7.8,43,0.00,,SKC,0.00,VWS V14.01,2013-08-22 21:20:00,
2013-08-22 16:21:00,93.6,68.0,29.94,SE,146,2.7,7.8,43,0.00,,SKC,0.00,VWS V14.01,2013-08-22 21:21:00,
2013-08-22 16:26:00,93.2,67.0,29.93,SSE,162,6.7,6.7,42,0.00,,SKC,0.00,VWS V14.01,2013-08-22 21:26:00,
2013-08-22 16:30:00,93.2,66.9,29.94,South,172,6.7,6.7,42,0.00,,SKC,0.00,VWS V14.01,2013-08-22 21:30:00,
2013-08-22 16:31:00,93.2,66.9,29.94,South,172,6.7,6.7,42,0.00,,SKC,0.00,VWS V14.01,2013-08-22 21:31:00,
2013-08-22 16:37:00,93.0,67.0,29.94,SSE,168,4.0,6.7,43,0.00,,SKC,0.00,VWS V14.01,2013-08-22 21:37:00,
2013-08-22 16:40:00,92.8,66.4,29.93,South,176,5.8,6.7,42,0.00,,SKC,0.00,VWS V14.01,2013-08-22 21:40:00,
2013-08-22 16:42:00,92.8,66.4,29.93,South,176,5.8,6.7,42,0.00,,SKC,0.00,VWS V14.01,2013-08-22 21:42:00,
2013-08-22 16:47:00,92.7,66.2,29.93,South,169,4.3,5.8,42,0.00,,SKC,0.00,VWS V14.01,2013-08-22 21:47:00,
2013-08-22 16:50:00,92.7,67.9,29.93,SSE,163,2.2,5.8,44,0.00,,SKC,0.00,VWS V14.01,2013-08-22 21:50:00,
2013-08-22 16:52:00,92.7,67.9,29.93,SSE,163,2.2,5.8,44,0.00,,SKC,0.00,VWS V14.01,2013-08-22 21:52:00,
2013-08-22 16:57:00,92.7,67.4,29.93,SSE,163,1.8,4.7,44,0.00,,SKC,0.00,VWS V14.01,2013-08-22 21:57:00,
2013-08-22 17:00:00,92.7,67.0,29.93,SE,139,0.9,4.7,43,0.00,,SKC,0.00,VWS V14.01,2013-08-22 22:00:00,
2013-08-22 17:02:00,92.7,67.1,29.93,SE,139,0.9,4.7,43,0.00,,SKC,0.00,VWS V14.01,2013-08-22 22:02:00,
2013-08-22 17:08:00,92.8,68.4,29.93,NW,323,0.9,5.4,45,0.00,,SKC,0.00,VWS V14.01,2013-08-22 22:08:00,
2013-08-22 17:13:00,92.8,68.1,29.93,NNE,20,0.9,6.9,44,0.00,,SKC,0.00,VWS V14.01,2013-08-22 22:13:00,
2013-08-22 17:18:00,92.5,69.0,29.93,South,173,10.7,10.7,46,0.00,,SKC,0.00,VWS V14.01,2013-08-22 22:18:00,
2013-08-22 17:23:00,91.4,69.3,29.93,SSE,168,11.9,11.9,48,0.00,,SKC,0.00,VWS V14.01,2013-08-22 22:23:00,
2013-08-22 17:28:00,90.0,69.3,29.93,SSW,195,16.6,17.5,51,0.00,,SKC,0.00,VWS V14.01,2013-08-22 22:28:00,
2013-08-22 17:30:00,89.4,68.4,29.93,South,190,16.1,17.5,50,0.00,,SKC,0.00,VWS V14.01,2013-08-22 22:30:00,
2013-08-22 17:33:00,88.7,69.1,29.93,South,183,13.0,16.1,52,0.00,,SKC,0.00,VWS V14.01,2013-08-22 22:33:00,
2013-08-22 17:39:00,88.9,69.3,29.93,SSW,213,14.5,16.1,53,0.00,,SKC,0.00,VWS V14.01,2013-08-22 22:39:00,
2013-08-22 17:40:00,88.9,69.6,29.93,SSW,200,14.3,16.1,53,0.00,,SKC,0.00,VWS V14.01,2013-08-22 22:40:00,
2013-08-22 17:44:00,89.2,70.1,29.93,SSW,193,14.1,14.3,53,0.00,,SKC,0.00,VWS V14.01,2013-08-22 22:44:00,
2013-08-22 17:49:00,88.9,71.1,29.93,SSE,165,5.8,14.3,56,0.00,,SKC,0.00,VWS V14.01,2013-08-22 22:49:00,
2013-08-22 17:50:00,88.9,71.1,29.93,SSE,165,5.8,14.3,56,0.00,,SKC,0.00,VWS V14.01,2013-08-22 22:50:00,
2013-08-22 17:54:00,88.9,70.5,29.93,South,174,12.1,14.3,55,0.00,,SKC,0.00,VWS V14.01,2013-08-22 22:54:00,
2013-08-22 17:59:00,88.3,69.9,29.92,South,171,10.5,14.3,55,0.00,,SKC,0.00,VWS V14.01,2013-08-22 22:59:00,
2013-08-22 18:00:00,88.2,69.9,29.93,South,175,11.2,14.3,55,0.00,,SKC,0.00,VWS V14.01,2013-08-22 23:00:00,
2013-08-22 18:04:00,88.0,70.0,29.93,SSE,161,8.5,11.2,55,0.00,,SKC,0.00,VWS V14.01,2013-08-22 23:04:00,
2013-08-22 18:09:00,87.8,70.2,29.93,South,178,10.1,11.4,56,0.00,,SKC,0.00,VWS V14.01,2013-08-22 23:09:00,
2013-08-22 18:10:00,87.6,70.1,29.93,South,169,9.8,11.4,56,0.00,,SKC,0.00,VWS V14.01,2013-08-22 23:10:00,
2013-08-22 18:15:00,87.6,70.3,29.93,SSE,159,9.4,9.8,57,0.00,,SKC,0.00,VWS V14.01,2013-08-22 23:15:00,
2013-08-22 18:20:00,86.9,70.9,29.92,South,186,7.2,10.7,59,0.00,,SKC,0.00,VWS V14.01,2013-08-22 23:20:00,
2013-08-22 18:25:00,86.5,70.8,29.93,SSW,204,6.5,11.6,60,0.00,,SKC,0.00,VWS V14.01,2013-08-22 23:25:00,
2013-08-22 18:30:00,86.2,71.2,29.93,SSW,192,9.2,11.6,61,0.00,,SKC,0.00,VWS V14.01,2013-08-22 23:30:00,
2013-08-22 18:35:00,85.8,71.8,29.93,SSW,199,10.1,11.6,63,0.00,,SKC,0.00,VWS V14.01,2013-08-22 23:35:00,
2013-08-22 18:40:00,85.6,72.4,29.93,SW,230,6.9,11.6,65,0.00,,SKC,0.00,VWS V14.01,2013-08-22 23:40:00,
2013-08-22 18:46:00,84.2,72.8,29.93,SSW,213,5.1,8.5,69,0.00,,SKC,0.00,VWS V14.01,2013-08-22 23:46:00,
2013-08-22 18:50:00,83.7,72.8,29.93,SSW,205,6.0,8.5,70,0.00,,SKC,0.00,VWS V14.01,2013-08-22 23:50:00,
2013-08-22 18:51:00,83.8,72.9,29.93,SSW,210,3.4,8.5,70,0.00,,SKC,0.00,VWS V14.01,2013-08-22 23:51:00,
2013-08-22 18:56:00,83.7,73.0,29.93,SSW,213,5.4,6.0,70,0.00,,SKC,0.00,VWS V14.01,2013-08-22 23:56:00,
2013-08-22 19:00:00,83.5,73.0,29.93,SSW,212,7.6,7.6,71,0.00,,SKC,0.00,VWS V14.01,2013-08-23 00:00:00,
2013-08-22 19:01:00,83.5,73.0,29.93,SSW,212,7.6,7.6,71,0.00,,SKC,0.00,VWS V14.01,2013-08-23 00:01:00,
2013-08-22 19:06:00,83.1,73.1,29.93,SW,222,4.5,7.6,72,0.00,,SKC,0.00,VWS V14.01,2013-08-23 00:06:00,
2013-08-22 19:11:00,83.1,73.4,29.93,SSW,210,4.7,7.6,72,0.00,,SKC,0.00,VWS V14.01,2013-08-23 00:11:00,
2013-08-22 19:17:00,82.9,73.4,29.93,SSW,207,3.6,7.6,73,0.00,,SKC,0.00,VWS V14.01,2013-08-23 00:17:00,
2013-08-22 19:20:00,82.9,73.4,29.93,SW,214,3.6,7.6,73,0.00,,SKC,0.00,VWS V14.01,2013-08-23 00:20:00,
2013-08-22 19:22:00,82.9,73.4,29.93,SW,214,3.6,7.6,73,0.00,,SKC,0.00,VWS V14.01,2013-08-23 00:22:00,
2013-08-22 19:27:00,82.9,73.5,29.93,SSW,194,3.4,3.6,73,0.00,,SKC,0.00,VWS V14.01,2013-08-23 00:27:00,
2013-08-22 19:30:00,82.9,73.4,29.93,SSW,196,5.8,5.8,73,0.00,,SKC,0.00,VWS V14.01,2013-08-23 00:30:00,
2013-08-22 19:32:00,82.9,73.4,29.93,SSW,196,5.8,5.8,73,0.00,,SKC,0.00,VWS V14.01,2013-08-23 00:32:00,
2013-08-22 19:37:00,83.3,73.2,29.93,South,173,6.9,6.9,72,0.00,,SKC,0.00,VWS V14.01,2013-08-23 00:37:00,
2013-08-22 19:40:00,83.5,73.2,29.93,South,176,5.8,8.3,71,0.00,,SKC,0.00,VWS V14.01,2013-08-23 00:40:00,
2013-08-22 19:42:00,83.5,73.2,29.93,South,176,5.8,8.3,71,0.00,,SKC,0.00,VWS V14.01,2013-08-23 00:42:00,
2013-08-22 19:47:00,83.7,72.6,29.93,South,190,7.6,7.6,69,0.00,,SKC,0.00,VWS V14.01,2013-08-23 00:47:00,
2013-08-22 19:53:00,83.8,72.3,29.94,South,191,8.5,8.5,68,0.00,,SKC,0.00,VWS V14.01,2013-08-23 00:53:00,
2013-08-22 19:58:00,84.0,72.5,29.94,SW,217,6.5,9.2,68,0.00,,SKC,0.00,VWS V14.01,2013-08-23 00:58:00,
2013-08-22 20:00:00,84.0,72.6,29.94,South,185,6.7,9.2,68,0.00,,SKC,0.00,VWS V14.01,2013-08-23 01:00:00,
2013-08-22 20:03:00,83.8,72.6,29.95,SSW,195,5.6,6.7,69,0.00,,SKC,0.00,VWS V14.01,2013-08-23 01:03:00,
2013-08-22 20:08:00,83.7,72.3,29.95,SSW,196,5.4,6.0,69,0.00,,SKC,0.00,VWS V14.01,2013-08-23 01:08:00,
2013-08-22 20:13:00,83.5,72.4,29.95,SSW,196,5.4,6.7,69,0.00,,SKC,0.00,VWS V14.01,2013-08-23 01:13:00,
2013-08-22 20:18:00,83.3,72.5,29.95,South,185,4.3,6.7,70,0.00,,SKC,0.00,VWS V14.01,2013-08-23 01:18:00,
2013-08-22 20:24:00,83.1,72.5,29.96,SSW,202,4.9,6.7,70,0.00,,SKC,0.00,VWS V14.01,2013-08-23 01:24:00,
2013-08-22 20:29:00,83.1,72.6,29.96,SSW,195,8.1,8.1,71,0.00,,SKC,0.00,VWS V14.01,2013-08-23 01:29:00,
2013-08-22 20:31:00,82.9,72.6,29.97,South,179,5.4,8.3,71,0.00,,SKC,0.00,VWS V14.01,2013-08-23 01:31:00,
2013-08-22 20:32:00,82.9,72.6,29.97,South,179,5.4,8.3,71,0.00,,SKC,0.00,VWS V14.01,2013-08-23 01:32:00,
2013-08-22 20:33:00,82.9,72.5,29.98,South,183,7.4,8.3,71,0.00,,SKC,0.00,VWS V14.01,2013-08-23 01:33:00,
2013-08-22 20:34:00,83.1,72.7,29.96,SSW,195,5.6,8.1,71,0.00,,SKC,0.00,VWS V14.01,2013-08-23 01:34:00,
2013-08-22 20:39:00,83.1,72.5,29.96,SSW,199,6.3,8.1,70,0.00,,SKC,0.00,VWS V14.01,2013-08-23 01:39:00,
2013-08-22 20:44:00,83.1,72.5,29.96,South,189,6.9,8.1,70,0.00,,SKC,0.00,VWS V14.01,2013-08-23 01:44:00,
2013-08-22 20:49:00,82.9,72.5,29.97,South,182,6.9,8.1,71,0.00,,SKC,0.00,VWS V14.01,2013-08-23 01:49:00,
2013-08-22 20:55:00,83.1,72.6,29.97,South,185,6.5,8.1,71,0.00,,SKC,0.00,VWS V14.01,2013-08-23 01:55:00,
2013-08-22 21:00:00,83.1,72.7,29.97,South,173,4.9,8.1,71,0.00,,SKC,0.00,VWS V14.01,2013-08-23 02:00:00,
2013-08-22 21:05:00,83.1,72.4,29.97,SSE,161,5.1,8.1,70,0.00,,SKC,0.00,VWS V14.01,2013-08-23 02:05:00,
2013-08-22 21:10:00,82.9,72.4,29.97,SSE,167,8.3,8.3,71,0.00,,SKC,0.00,VWS V14.01,2013-08-23 02:10:00,
2013-08-22 21:15:00,82.9,72.4,29.98,South,170,6.9,8.3,71,0.00,,SKC,0.00,VWS V14.01,2013-08-23 02:15:00,
2013-08-22 21:20:00,82.9,72.5,29.98,South,189,5.1,8.3,71,0.00,,SKC,0.00,VWS V14.01,2013-08-23 02:20:00,
2013-08-22 21:25:00,82.9,72.4,29.98,South,180,5.6,8.3,71,0.00,,SKC,0.00,VWS V14.01,2013-08-23 02:25:00,
2013-08-22 21:31:00,82.8,72.4,29.99,South,171,4.0,8.3,71,0.00,,SKC,0.00,VWS V14.01,2013-08-23 02:31:00,
2013-08-22 21:36:00,82.8,72.6,29.99,SSW,193,1.6,8.3,72,0.00,,SKC,0.00,VWS V14.01,2013-08-23 02:36:00,
2013-08-22 21:41:00,82.6,72.4,29.99,South,188,3.6,8.3,71,0.00,,SKC,0.00,VWS V14.01,2013-08-23 02:41:00,
2013-08-22 21:46:00,82.6,72.7,29.99,SSE,166,3.8,8.3,72,0.00,,SKC,0.00,VWS V14.01,2013-08-23 02:46:00,
2013-08-22 21:51:00,82.2,72.4,29.99,SSE,167,3.4,8.3,72,0.00,,SKC,0.00,VWS V14.01,2013-08-23 02:51:00,
2013-08-22 21:56:00,82.2,72.7,29.99,South,174,3.4,8.3,73,0.00,,SKC,0.00,VWS V14.01,2013-08-23 02:56:00,
2013-08-22 22:00:00,82.9,72.4,29.97,SSE,167,8.3,8.3,71,0.00,,SKC,0.00,VWS V14.01,2013-08-23 03:00:00,
2013-08-22 22:02:00,82.0,72.7,29.99,South,179,2.0,8.3,73,0.00,,SKC,0.00,VWS V14.01,2013-08-23 03:02:00,
2013-08-22 22:07:00,81.9,72.5,29.99,South,173,3.8,8.3,73,0.00,,SKC,0.00,VWS V14.01,2013-08-23 03:07:00,
2013-08-22 22:10:00,81.9,72.8,29.99,South,185,2.7,8.3,74,0.00,,SKC,0.00,VWS V14.01,2013-08-23 03:10:00,
2013-08-22 22:12:00,81.9,72.8,29.99,South,185,2.7,8.3,74,0.00,,SKC,0.00,VWS V14.01,2013-08-23 03:12:00,
2013-08-22 22:17:00,81.5,72.7,29.99,South,180,2.7,3.4,75,0.00,,SKC,0.00,VWS V14.01,2013-08-23 03:17:00,
2013-08-22 22:20:00,81.5,72.7,29.99,SSE,157,2.7,3.6,75,0.00,,SKC,0.00,VWS V14.01,2013-08-23 03:20:00,
2013-08-22 22:22:00,81.5,72.7,29.99,SSE,157,2.7,3.6,75,0.00,,SKC,0.00,VWS V14.01,2013-08-23 03:22:00,
2013-08-22 22:27:00,81.3,72.8,29.99,SSE,154,0.9,2.7,75,0.00,,SKC,0.00,VWS V14.01,2013-08-23 03:27:00,
2013-08-22 22:30:00,81.1,72.7,29.99,South,173,1.8,2.7,76,0.00,,SKC,0.00,VWS V14.01,2013-08-23 03:30:00,
2013-08-22 22:33:00,81.1,72.7,29.99,South,173,1.8,2.7,76,0.00,,SKC,0.00,VWS V14.01,2013-08-23 03:33:00,
2013-08-22 22:38:00,81.1,72.8,29.99,South,172,2.9,3.1,76,0.00,,SKC,0.00,VWS V14.01,2013-08-23 03:38:00,
2013-08-22 22:43:00,81.0,72.7,29.99,South,191,2.7,3.4,76,0.00,,SKC,0.00,VWS V14.01,2013-08-23 03:43:00,
2013-08-22 22:48:00,80.8,72.6,29.99,SSW,196,4.7,4.7,76,0.00,,SKC,0.00,VWS V14.01,2013-08-23 03:48:00,
2013-08-22 22:50:00,80.8,72.5,29.99,SSW,194,4.5,6.3,76,0.00,,SKC,0.00,VWS V14.01,2013-08-23 03:50:00,
2013-08-22 22:53:00,81.0,72.7,30.00,South,185,4.3,4.5,76,0.00,,SKC,0.00,VWS V14.01,2013-08-23 03:53:00,
2013-08-22 22:58:00,80.8,72.7,30.00,South,172,2.5,4.5,76,0.00,,SKC,0.00,VWS V14.01,2013-08-23 03:58:00,
2013-08-22 23:00:00,80.8,72.8,30.00,WSW,257,0.4,4.5,77,0.00,,SKC,0.00,VWS V14.01,2013-08-23 04:00:00,
2013-08-22 23:01:00,80.8,72.8,30.00,WSW,257,0.4,4.5,77,0.00,,SKC,0.00,VWS V14.01,2013-08-23 04:01:00,
2013-08-22 23:02:00,80.8,72.8,30.00,WSW,257,0.4,4.5,77,0.00,,SKC,0.00,VWS V14.01,2013-08-23 04:02:00,
2013-08-22 23:04:00,80.6,72.6,30.00,SSE,147,1.1,1.1,77,0.00,,SKC,0.00,VWS V14.01,2013-08-23 04:04:00,
2013-08-22 23:05:00,80.4,72.6,30.00,ESE,106,0.4,1.1,77,0.00,,SKC,0.00,VWS V14.01,2013-08-23 04:05:00,
2013-08-22 23:10:00,80.2,72.6,30.00,SSE,168,1.1,1.1,78,0.00,,SKC,0.00,VWS V14.01,2013-08-23 04:10:00,
2013-08-22 23:15:00,80.1,72.6,30.00,South,177,1.6,1.6,78,0.00,,SKC,0.00,VWS V14.01,2013-08-23 04:15:00,
2013-08-22 23:21:00,80.1,72.7,30.00,SSW,193,1.3,1.6,78,0.00,,SKC,0.00,VWS V14.01,2013-08-23 04:21:00,
2013-08-22 23:26:00,79.9,72.8,30.00,South,190,2.2,2.2,79,0.00,,SKC,0.00,VWS V14.01,2013-08-23 04:26:00,
2013-08-22 23:31:00,79.9,72.5,30.00,SSW,192,3.6,3.6,78,0.00,,SKC,0.00,VWS V14.01,2013-08-23 04:31:00,
2013-08-22 23:36:00,79.7,72.4,30.00,South,191,3.4,3.6,78,0.00,,SKC,0.00,VWS V14.01,2013-08-23 04:36:00,
2013-08-22 23:41:00,79.7,72.3,30.00,SSW,207,4.7,4.7,78,0.00,,SKC,0.00,VWS V14.01,2013-08-23 04:41:00,
2013-08-22 23:46:00,79.9,72.5,30.00,SW,218,2.7,4.7,78,0.00,,SKC,0.00,VWS V14.01,2013-08-23 04:46:00,
2013-08-22 23:52:00,79.7,72.5,30.00,SW,221,2.0,4.7,79,0.00,,SKC,0.00,VWS V14.01,2013-08-23 04:52:00,
2013-08-22 23:57:00,79.5,72.4,30.00,SW,232,1.8,2.2,79,0.00,,SKC,0.00,VWS V14.01,2013-08-23 04:57:00,